sensor_id;sensor_type;location;lat;lon;timestamp;P1;durP1;ratioP1;P2;durP2;ratioP2
19525;SDS011;9907;42.676;26.348;2024-02-14T00:00:36;3.50;;;3.20;;
19525;SDS011;9907;42.676;26.348;2024-02-14T00:03:02;4.60;;;4.03;;
19525;SDS011;9907;42.676;26.348;2024-02-14T00:05:28;3.50;;;3.20;;
19525;SDS011;9907;42.676;26.348;2024-02-14T00:07:54;3.67;;;3.37;;
19525;SDS011;9907;42.676;26.348;2024-02-14T00:10:19;3.40;;;3.10;;
19525;SDS011;9907;42.676;26.348;2024-02-14T00:12:45;3.50;;;3.20;;
19525;SDS011;9907;42.676;26.348;2024-02-14T00:15:11;2.03;;;1.83;;
19525;SDS011;9907;42.676;26.348;2024-02-14T00:17:37;2.60;;;2.40;;
19525;SDS011;9907;42.676;26.348;2024-02-14T00:20:03;5.27;;;3.67;;
19525;SDS011;9907;42.676;26.348;2024-02-14T00:22:29;3.90;;;3.03;;
19525;SDS011;9907;42.676;26.348;2024-02-14T00:24:57;4.90;;;3.90;;
19525;SDS011;9907;42.676;26.348;2024-02-14T00:27:23;3.80;;;3.47;;
19525;SDS011;9907;42.676;26.348;2024-02-14T00:29:49;5.40;;;4.80;;
19525;SDS011;9907;42.676;26.348;2024-02-14T00:32:15;5.13;;;4.63;;
19525;SDS011;9907;42.676;26.348;2024-02-14T00:34:41;5.33;;;4.80;;
19525;SDS011;9907;42.676;26.348;2024-02-14T00:37:07;5.47;;;4.97;;
19525;SDS011;9907;42.676;26.348;2024-02-14T00:39:32;5.73;;;5.10;;
19525;SDS011;9907;42.676;26.348;2024-02-14T00:41:58;10.90;;;5.97;;
19525;SDS011;9907;42.676;26.348;2024-02-14T00:44:24;6.77;;;6.10;;
19525;SDS011;9907;42.676;26.348;2024-02-14T00:46:49;6.80;;;6.10;;
19525;SDS011;9907;42.676;26.348;2024-02-14T00:49:22;6.17;;;5.57;;
19525;SDS011;9907;42.676;26.348;2024-02-14T00:51:47;5.87;;;5.37;;
19525;SDS011;9907;42.676;26.348;2024-02-14T00:54:13;6.43;;;5.90;;
19525;SDS011;9907;42.676;26.348;2024-02-14T00:56:38;7.00;;;6.30;;
19525;SDS011;9907;42.676;26.348;2024-02-14T00:59:05;6.13;;;5.53;;
19525;SDS011;9907;42.676;26.348;2024-02-14T01:01:31;6.50;;;5.90;;
19525;SDS011;9907;42.676;26.348;2024-02-14T01:03:56;7.50;;;6.80;;
19525;SDS011;9907;42.676;26.348;2024-02-14T01:06:21;7.07;;;6.47;;
19525;SDS011;9907;42.676;26.348;2024-02-14T01:08:47;8.83;;;7.07;;
19525;SDS011;9907;42.676;26.348;2024-02-14T01:11:12;7.10;;;6.40;;
19525;SDS011;9907;42.676;26.348;2024-02-14T01:13:38;7.30;;;6.60;;
19525;SDS011;9907;42.676;26.348;2024-02-14T01:16:03;7.80;;;7.10;;
19525;SDS011;9907;42.676;26.348;2024-02-14T01:18:30;7.77;;;6.97;;
19525;SDS011;9907;42.676;26.348;2024-02-14T01:20:55;7.73;;;7.03;;
19525;SDS011;9907;42.676;26.348;2024-02-14T01:23:21;7.40;;;6.70;;
19525;SDS011;9907;42.676;26.348;2024-02-14T01:25:47;7.57;;;6.87;;
19525;SDS011;9907;42.676;26.348;2024-02-14T01:28:12;7.43;;;6.70;;
19525;SDS011;9907;42.676;26.348;2024-02-14T01:30:38;7.50;;;6.80;;
19525;SDS011;9907;42.676;26.348;2024-02-14T01:33:03;8.37;;;7.57;;
19525;SDS011;9907;42.676;26.348;2024-02-14T01:35:30;8.20;;;7.50;;
19525;SDS011;9907;42.676;26.348;2024-02-14T01:37:55;8.17;;;7.47;;
19525;SDS011;9907;42.676;26.348;2024-02-14T01:40:21;8.80;;;8.00;;
19525;SDS011;9907;42.676;26.348;2024-02-14T01:42:47;8.83;;;8.03;;
19525;SDS011;9907;42.676;26.348;2024-02-14T01:45:13;8.73;;;7.73;;
19525;SDS011;9907;42.676;26.348;2024-02-14T01:47:38;10.13;;;8.60;;
19525;SDS011;9907;42.676;26.348;2024-02-14T01:50:07;8.80;;;8.00;;
19525;SDS011;9907;42.676;26.348;2024-02-14T01:52:39;8.80;;;7.97;;
19525;SDS011;9907;42.676;26.348;2024-02-14T01:55:06;8.83;;;7.93;;
19525;SDS011;9907;42.676;26.348;2024-02-14T01:57:33;9.40;;;8.50;;
19525;SDS011;9907;42.676;26.348;2024-02-14T02:00:01;8.07;;;7.37;;
19525;SDS011;9907;42.676;26.348;2024-02-14T02:02:35;9.73;;;8.73;;
19525;SDS011;9907;42.676;26.348;2024-02-14T02:05:04;8.83;;;8.03;;
19525;SDS011;9907;42.676;26.348;2024-02-14T02:07:32;9.73;;;8.83;;
19525;SDS011;9907;42.676;26.348;2024-02-14T02:09:58;8.53;;;7.73;;
19525;SDS011;9907;42.676;26.348;2024-02-14T02:12:23;8.57;;;7.67;;
19525;SDS011;9907;42.676;26.348;2024-02-14T02:14:52;7.60;;;6.80;;
19525;SDS011;9907;42.676;26.348;2024-02-14T02:17:20;2.60;;;2.40;;
19525;SDS011;9907;42.676;26.348;2024-02-14T02:19:46;0.50;;;0.50;;
19525;SDS011;9907;42.676;26.348;2024-02-14T02:22:11;0.30;;;0.30;;
19525;SDS011;9907;42.676;26.348;2024-02-14T02:24:37;0.20;;;0.20;;
19525;SDS011;9907;42.676;26.348;2024-02-14T02:27:03;0.40;;;0.40;;
19525;SDS011;9907;42.676;26.348;2024-02-14T02:29:29;0.20;;;0.20;;
19525;SDS011;9907;42.676;26.348;2024-02-14T02:31:54;0.20;;;0.20;;
19525;SDS011;9907;42.676;26.348;2024-02-14T02:34:19;0.20;;;0.20;;
19525;SDS011;9907;42.676;26.348;2024-02-14T02:36:45;0.30;;;0.30;;
19525;SDS011;9907;42.676;26.348;2024-02-14T02:39:13;0.27;;;0.27;;
19525;SDS011;9907;42.676;26.348;2024-02-14T02:41:39;0.67;;;0.20;;
19525;SDS011;9907;42.676;26.348;2024-02-14T02:44:04;0.30;;;0.30;;
19525;SDS011;9907;42.676;26.348;2024-02-14T02:46:31;0.60;;;0.60;;
19525;SDS011;9907;42.676;26.348;2024-02-14T02:48:57;2.63;;;2.43;;
19525;SDS011;9907;42.676;26.348;2024-02-14T02:51:23;3.77;;;3.37;;
19525;SDS011;9907;42.676;26.348;2024-02-14T02:53:49;4.17;;;3.77;;
19525;SDS011;9907;42.676;26.348;2024-02-14T02:56:14;4.43;;;4.03;;
19525;SDS011;9907;42.676;26.348;2024-02-14T02:58:40;4.30;;;3.90;;
19525;SDS011;9907;42.676;26.348;2024-02-14T03:01:09;3.90;;;3.60;;
19525;SDS011;9907;42.676;26.348;2024-02-14T03:03:34;3.67;;;3.37;;
19525;SDS011;9907;42.676;26.348;2024-02-14T03:06:01;3.90;;;3.43;;
19525;SDS011;9907;42.676;26.348;2024-02-14T03:08:28;3.10;;;2.80;;
19525;SDS011;9907;42.676;26.348;2024-02-14T03:10:55;2.43;;;2.13;;
19525;SDS011;9907;42.676;26.348;2024-02-14T03:13:24;2.60;;;2.33;;
19525;SDS011;9907;42.676;26.348;2024-02-14T03:15:50;2.53;;;2.20;;
19525;SDS011;9907;42.676;26.348;2024-02-14T03:18:15;1.87;;;1.77;;
19525;SDS011;9907;42.676;26.348;2024-02-14T03:20:41;0.80;;;0.80;;
19525;SDS011;9907;42.676;26.348;2024-02-14T03:23:06;0.80;;;0.77;;
19525;SDS011;9907;42.676;26.348;2024-02-14T03:25:32;1.20;;;1.10;;
19525;SDS011;9907;42.676;26.348;2024-02-14T03:27:57;1.00;;;0.90;;
19525;SDS011;9907;42.676;26.348;2024-02-14T03:30:23;1.37;;;0.70;;
19525;SDS011;9907;42.676;26.348;2024-02-14T03:32:49;1.10;;;1.00;;
19525;SDS011;9907;42.676;26.348;2024-02-14T03:35:15;0.87;;;0.87;;
19525;SDS011;9907;42.676;26.348;2024-02-14T03:37:42;0.60;;;0.60;;
19525;SDS011;9907;42.676;26.348;2024-02-14T03:40:09;0.50;;;0.50;;
19525;SDS011;9907;42.676;26.348;2024-02-14T03:42:35;0.27;;;0.27;;
19525;SDS011;9907;42.676;26.348;2024-02-14T03:45:01;0.40;;;0.40;;
19525;SDS011;9907;42.676;26.348;2024-02-14T03:47:33;0.30;;;0.30;;
19525;SDS011;9907;42.676;26.348;2024-02-14T03:49:59;0.37;;;0.37;;
19525;SDS011;9907;42.676;26.348;2024-02-14T03:52:25;0.30;;;0.30;;
19525;SDS011;9907;42.676;26.348;2024-02-14T03:54:51;0.43;;;0.43;;
19525;SDS011;9907;42.676;26.348;2024-02-14T03:57:17;0.77;;;0.30;;
19525;SDS011;9907;42.676;26.348;2024-02-14T03:59:46;0.80;;;0.80;;
19525;SDS011;9907;42.676;26.348;2024-02-14T04:02:11;0.30;;;0.30;;
19525;SDS011;9907;42.676;26.348;2024-02-14T04:04:38;0.37;;;0.30;;
19525;SDS011;9907;42.676;26.348;2024-02-14T04:07:06;32.67;;;5.83;;
19525;SDS011;9907;42.676;26.348;2024-02-14T04:09:35;0.40;;;0.30;;
19525;SDS011;9907;42.676;26.348;2024-02-14T04:12:01;0.63;;;0.37;;
19525;SDS011;9907;42.676;26.348;2024-02-14T04:14:26;0.60;;;0.60;;
19525;SDS011;9907;42.676;26.348;2024-02-14T04:16:52;0.33;;;0.33;;
19525;SDS011;9907;42.676;26.348;2024-02-14T04:19:18;10.33;;;1.97;;
19525;SDS011;9907;42.676;26.348;2024-02-14T04:21:43;5.37;;;0.97;;
19525;SDS011;9907;42.676;26.348;2024-02-14T04:24:09;2.73;;;0.40;;
19525;SDS011;9907;42.676;26.348;2024-02-14T04:26:34;0.60;;;0.60;;
19525;SDS011;9907;42.676;26.348;2024-02-14T04:29:00;0.57;;;0.50;;
19525;SDS011;9907;42.676;26.348;2024-02-14T04:31:26;1.27;;;0.50;;
19525;SDS011;9907;42.676;26.348;2024-02-14T04:33:53;1.20;;;0.50;;
19525;SDS011;9907;42.676;26.348;2024-02-14T04:36:19;0.70;;;0.70;;
19525;SDS011;9907;42.676;26.348;2024-02-14T04:38:46;0.50;;;0.50;;
19525;SDS011;9907;42.676;26.348;2024-02-14T04:41:12;2.00;;;0.70;;
19525;SDS011;9907;42.676;26.348;2024-02-14T04:43:37;1.10;;;0.90;;
19525;SDS011;9907;42.676;26.348;2024-02-14T04:46:03;0.77;;;0.67;;
19525;SDS011;9907;42.676;26.348;2024-02-14T04:48:32;0.83;;;0.60;;
19525;SDS011;9907;42.676;26.348;2024-02-14T04:50:58;0.70;;;0.70;;
19525;SDS011;9907;42.676;26.348;2024-02-14T04:53:23;2.23;;;0.60;;
19525;SDS011;9907;42.676;26.348;2024-02-14T04:55:49;0.63;;;0.63;;
19525;SDS011;9907;42.676;26.348;2024-02-14T04:58:15;1.67;;;0.80;;
19525;SDS011;9907;42.676;26.348;2024-02-14T05:00:41;2.67;;;1.27;;
19525;SDS011;9907;42.676;26.348;2024-02-14T05:03:06;2.90;;;1.00;;
19525;SDS011;9907;42.676;26.348;2024-02-14T05:05:32;0.67;;;0.67;;
19525;SDS011;9907;42.676;26.348;2024-02-14T05:07:58;1.03;;;0.90;;
19525;SDS011;9907;42.676;26.348;2024-02-14T05:10:24;0.73;;;0.70;;
19525;SDS011;9907;42.676;26.348;2024-02-14T05:12:50;1.30;;;0.80;;
19525;SDS011;9907;42.676;26.348;2024-02-14T05:15:16;0.47;;;0.40;;
19525;SDS011;9907;42.676;26.348;2024-02-14T05:17:42;0.50;;;0.50;;
19525;SDS011;9907;42.676;26.348;2024-02-14T05:20:10;0.70;;;0.70;;
19525;SDS011;9907;42.676;26.348;2024-02-14T05:22:36;8.03;;;2.07;;
19525;SDS011;9907;42.676;26.348;2024-02-14T05:25:05;0.60;;;0.60;;
19525;SDS011;9907;42.676;26.348;2024-02-14T05:27:33;0.70;;;0.50;;
19525;SDS011;9907;42.676;26.348;2024-02-14T05:29:58;2.20;;;0.93;;
19525;SDS011;9907;42.676;26.348;2024-02-14T05:32:24;1.47;;;1.37;;
19525;SDS011;9907;42.676;26.348;2024-02-14T05:34:50;1.83;;;0.90;;
19525;SDS011;9907;42.676;26.348;2024-02-14T05:37:16;0.83;;;0.83;;
19525;SDS011;9907;42.676;26.348;2024-02-14T05:39:41;1.27;;;1.17;;
19525;SDS011;9907;42.676;26.348;2024-02-14T05:42:07;1.90;;;1.20;;
19525;SDS011;9907;42.676;26.348;2024-02-14T05:44:33;2.17;;;1.90;;
19525;SDS011;9907;42.676;26.348;2024-02-14T05:46:58;2.57;;;1.83;;
19525;SDS011;9907;42.676;26.348;2024-02-14T05:49:25;1.73;;;1.37;;
19525;SDS011;9907;42.676;26.348;2024-02-14T05:51:50;2.03;;;1.77;;
19525;SDS011;9907;42.676;26.348;2024-02-14T05:54:18;2.37;;;1.50;;
19525;SDS011;9907;42.676;26.348;2024-02-14T05:56:43;3.10;;;1.60;;
19525;SDS011;9907;42.676;26.348;2024-02-14T05:59:10;1.97;;;1.70;;
19525;SDS011;9907;42.676;26.348;2024-02-14T06:01:35;1.40;;;1.30;;
19525;SDS011;9907;42.676;26.348;2024-02-14T06:04:01;2.80;;;1.80;;
19525;SDS011;9907;42.676;26.348;2024-02-14T06:06:26;2.37;;;1.70;;
19525;SDS011;9907;42.676;26.348;2024-02-14T06:11:27;1.73;;;1.60;;
19525;SDS011;9907;42.676;26.348;2024-02-14T06:13:52;3.10;;;2.00;;
19525;SDS011;9907;42.676;26.348;2024-02-14T06:16:18;2.40;;;1.93;;
19525;SDS011;9907;42.676;26.348;2024-02-14T06:18:43;4.83;;;4.43;;
19525;SDS011;9907;42.676;26.348;2024-02-14T06:21:10;12.40;;;11.20;;
19525;SDS011;9907;42.676;26.348;2024-02-14T06:23:35;11.43;;;10.43;;
19525;SDS011;9907;42.676;26.348;2024-02-14T06:26:02;13.50;;;12.10;;
19525;SDS011;9907;42.676;26.348;2024-02-14T06:28:29;19.57;;;17.50;;
19525;SDS011;9907;42.676;26.348;2024-02-14T06:30:54;11.97;;;9.87;;
19525;SDS011;9907;42.676;26.348;2024-02-14T06:33:21;9.50;;;6.47;;
19525;SDS011;9907;42.676;26.348;2024-02-14T06:35:46;5.00;;;4.50;;
19525;SDS011;9907;42.676;26.348;2024-02-14T06:38:12;7.17;;;5.40;;
19525;SDS011;9907;42.676;26.348;2024-02-14T06:40:37;5.47;;;4.30;;
19525;SDS011;9907;42.676;26.348;2024-02-14T06:43:03;6.47;;;5.67;;
19525;SDS011;9907;42.676;26.348;2024-02-14T06:45:28;8.40;;;4.63;;
19525;SDS011;9907;42.676;26.348;2024-02-14T06:47:54;6.23;;;3.40;;
19525;SDS011;9907;42.676;26.348;2024-02-14T06:50:20;5.13;;;2.70;;
19525;SDS011;9907;42.676;26.348;2024-02-14T06:52:45;3.83;;;1.87;;
19525;SDS011;9907;42.676;26.348;2024-02-14T06:55:11;2.53;;;2.07;;
19525;SDS011;9907;42.676;26.348;2024-02-14T06:57:42;2.77;;;2.30;;
19525;SDS011;9907;42.676;26.348;2024-02-14T07:00:07;2.70;;;2.30;;
19525;SDS011;9907;42.676;26.348;2024-02-14T07:02:34;1.77;;;1.60;;
19525;SDS011;9907;42.676;26.348;2024-02-14T07:04:59;2.77;;;1.60;;
19525;SDS011;9907;42.676;26.348;2024-02-14T07:07:25;4.80;;;3.17;;
19525;SDS011;9907;42.676;26.348;2024-02-14T07:09:51;12.13;;;8.70;;
19525;SDS011;9907;42.676;26.348;2024-02-14T07:12:16;9.00;;;8.10;;
19525;SDS011;9907;42.676;26.348;2024-02-14T07:14:42;9.83;;;8.93;;
19525;SDS011;9907;42.676;26.348;2024-02-14T07:17:07;14.10;;;11.63;;
19525;SDS011;9907;42.676;26.348;2024-02-14T07:19:33;11.33;;;9.93;;
19525;SDS011;9907;42.676;26.348;2024-02-14T07:21:58;10.27;;;8.30;;
19525;SDS011;9907;42.676;26.348;2024-02-14T07:24:23;12.20;;;7.50;;
19525;SDS011;9907;42.676;26.348;2024-02-14T07:26:49;9.60;;;6.87;;
19525;SDS011;9907;42.676;26.348;2024-02-14T07:29:14;10.40;;;6.67;;
19525;SDS011;9907;42.676;26.348;2024-02-14T07:31:40;6.70;;;4.80;;
19525;SDS011;9907;42.676;26.348;2024-02-14T07:34:06;6.70;;;4.93;;
19525;SDS011;9907;42.676;26.348;2024-02-14T07:36:32;5.73;;;3.80;;
19525;SDS011;9907;42.676;26.348;2024-02-14T07:41:26;11.00;;;6.00;;
19525;SDS011;9907;42.676;26.348;2024-02-14T07:43:51;7.60;;;4.37;;
19525;SDS011;9907;42.676;26.348;2024-02-14T07:46:18;12.13;;;5.20;;
19525;SDS011;9907;42.676;26.348;2024-02-14T07:48:44;9.70;;;5.20;;
19525;SDS011;9907;42.676;26.348;2024-02-14T07:51:09;11.20;;;5.10;;
19525;SDS011;9907;42.676;26.348;2024-02-14T07:53:35;10.77;;;7.50;;
19525;SDS011;9907;42.676;26.348;2024-02-14T07:56:00;6.90;;;4.30;;
19525;SDS011;9907;42.676;26.348;2024-02-14T07:58:26;8.63;;;4.30;;
19525;SDS011;9907;42.676;26.348;2024-02-14T08:00:51;5.53;;;4.33;;
19525;SDS011;9907;42.676;26.348;2024-02-14T08:03:17;2.00;;;1.70;;
19525;SDS011;9907;42.676;26.348;2024-02-14T08:05:42;3.33;;;2.00;;
19525;SDS011;9907;42.676;26.348;2024-02-14T08:08:08;6.63;;;3.07;;
19525;SDS011;9907;42.676;26.348;2024-02-14T08:10:33;4.67;;;3.80;;
19525;SDS011;9907;42.676;26.348;2024-02-14T08:12:59;6.57;;;3.50;;
19525;SDS011;9907;42.676;26.348;2024-02-14T08:15:24;9.40;;;4.30;;
19525;SDS011;9907;42.676;26.348;2024-02-14T08:17:50;6.00;;;3.50;;
19525;SDS011;9907;42.676;26.348;2024-02-14T08:20:20;15.17;;;3.40;;
19525;SDS011;9907;42.676;26.348;2024-02-14T08:22:46;6.43;;;4.17;;
19525;SDS011;9907;42.676;26.348;2024-02-14T08:25:11;5.97;;;2.60;;
19525;SDS011;9907;42.676;26.348;2024-02-14T08:27:37;7.00;;;5.90;;
19525;SDS011;9907;42.676;26.348;2024-02-14T08:30:02;4.60;;;4.10;;
19525;SDS011;9907;42.676;26.348;2024-02-14T08:32:31;4.57;;;2.07;;
19525;SDS011;9907;42.676;26.348;2024-02-14T08:34:58;2.57;;;2.37;;
19525;SDS011;9907;42.676;26.348;2024-02-14T08:37:23;3.73;;;1.60;;
19525;SDS011;9907;42.676;26.348;2024-02-14T08:39:50;1.97;;;1.40;;
19525;SDS011;9907;42.676;26.348;2024-02-14T08:42:15;4.40;;;2.50;;
19525;SDS011;9907;42.676;26.348;2024-02-14T08:44:41;4.50;;;2.43;;
19525;SDS011;9907;42.676;26.348;2024-02-14T08:47:06;6.77;;;3.97;;
19525;SDS011;9907;42.676;26.348;2024-02-14T08:49:32;6.27;;;4.60;;
19525;SDS011;9907;42.676;26.348;2024-02-14T08:51:57;5.03;;;3.90;;
19525;SDS011;9907;42.676;26.348;2024-02-14T08:54:23;5.70;;;3.53;;
19525;SDS011;9907;42.676;26.348;2024-02-14T08:56:48;3.37;;;3.07;;
19525;SDS011;9907;42.676;26.348;2024-02-14T08:59:14;3.20;;;2.70;;
19525;SDS011;9907;42.676;26.348;2024-02-14T09:01:39;2.30;;;2.10;;
19525;SDS011;9907;42.676;26.348;2024-02-14T09:04:04;5.30;;;4.00;;
19525;SDS011;9907;42.676;26.348;2024-02-14T09:06:30;3.03;;;2.27;;
19525;SDS011;9907;42.676;26.348;2024-02-14T09:08:59;3.37;;;2.00;;
19525;SDS011;9907;42.676;26.348;2024-02-14T09:11:25;1.90;;;1.80;;
19525;SDS011;9907;42.676;26.348;2024-02-14T09:13:51;2.00;;;1.90;;
19525;SDS011;9907;42.676;26.348;2024-02-14T09:16:19;1.97;;;1.47;;
19525;SDS011;9907;42.676;26.348;2024-02-14T09:18:46;1.97;;;1.87;;
19525;SDS011;9907;42.676;26.348;2024-02-14T09:21:11;1.90;;;1.80;;
19525;SDS011;9907;42.676;26.348;2024-02-14T09:23:37;2.70;;;2.10;;
19525;SDS011;9907;42.676;26.348;2024-02-14T09:26:05;2.40;;;1.53;;
19525;SDS011;9907;42.676;26.348;2024-02-14T09:28:30;1.80;;;1.70;;
19525;SDS011;9907;42.676;26.348;2024-02-14T09:30:58;1.73;;;1.63;;
19525;SDS011;9907;42.676;26.348;2024-02-14T09:33:23;2.13;;;2.00;;
19525;SDS011;9907;42.676;26.348;2024-02-14T09:38:18;2.03;;;1.93;;
19525;SDS011;9907;42.676;26.348;2024-02-14T09:40:43;4.40;;;2.40;;
19525;SDS011;9907;42.676;26.348;2024-02-14T09:43:16;2.77;;;2.57;;
19525;SDS011;9907;42.676;26.348;2024-02-14T09:45:49;2.13;;;1.90;;
19525;SDS011;9907;42.676;26.348;2024-02-14T09:48:16;4.63;;;2.13;;
19525;SDS011;9907;42.676;26.348;2024-02-14T09:50:42;2.90;;;2.70;;
19525;SDS011;9907;42.676;26.348;2024-02-14T09:53:09;3.13;;;2.60;;
19525;SDS011;9907;42.676;26.348;2024-02-14T09:55:35;2.20;;;1.47;;
19525;SDS011;9907;42.676;26.348;2024-02-14T09:58:03;3.97;;;2.37;;
19525;SDS011;9907;42.676;26.348;2024-02-14T10:00:31;1.67;;;1.57;;
19525;SDS011;9907;42.676;26.348;2024-02-14T10:02:58;1.40;;;1.30;;
19525;SDS011;9907;42.676;26.348;2024-02-14T10:05:23;1.47;;;1.37;;
19525;SDS011;9907;42.676;26.348;2024-02-14T10:07:50;2.13;;;1.50;;
19525;SDS011;9907;42.676;26.348;2024-02-14T10:10:16;1.03;;;1.03;;
19525;SDS011;9907;42.676;26.348;2024-02-14T10:12:42;8.53;;;7.20;;
19525;SDS011;9907;42.676;26.348;2024-02-14T10:15:08;1.70;;;1.60;;
19525;SDS011;9907;42.676;26.348;2024-02-14T10:17:34;3.40;;;1.50;;
19525;SDS011;9907;42.676;26.348;2024-02-14T10:20:00;2.30;;;1.73;;
19525;SDS011;9907;42.676;26.348;2024-02-14T10:22:37;3.93;;;3.60;;
19525;SDS011;9907;42.676;26.348;2024-02-14T10:25:04;1.40;;;1.00;;
19525;SDS011;9907;42.676;26.348;2024-02-14T10:27:40;2.07;;;1.53;;
19525;SDS011;9907;42.676;26.348;2024-02-14T10:30:06;2.00;;;1.40;;
19525;SDS011;9907;42.676;26.348;2024-02-14T10:32:36;1.10;;;1.10;;
19525;SDS011;9907;42.676;26.348;2024-02-14T10:35:12;2.23;;;0.93;;
19525;SDS011;9907;42.676;26.348;2024-02-14T10:37:38;1.53;;;1.37;;
19525;SDS011;9907;42.676;26.348;2024-02-14T10:40:04;1.60;;;1.50;;
19525;SDS011;9907;42.676;26.348;2024-02-14T10:42:31;2.97;;;2.77;;
19525;SDS011;9907;42.676;26.348;2024-02-14T10:44:58;1.97;;;1.73;;
19525;SDS011;9907;42.676;26.348;2024-02-14T10:47:25;1.63;;;1.53;;
19525;SDS011;9907;42.676;26.348;2024-02-14T10:49:57;2.40;;;1.90;;
19525;SDS011;9907;42.676;26.348;2024-02-14T10:52:30;1.50;;;1.40;;
19525;SDS011;9907;42.676;26.348;2024-02-14T10:54:58;1.87;;;1.30;;
19525;SDS011;9907;42.676;26.348;2024-02-14T10:57:27;3.20;;;1.50;;
19525;SDS011;9907;42.676;26.348;2024-02-14T10:59:54;1.97;;;1.73;;
19525;SDS011;9907;42.676;26.348;2024-02-14T11:02:22;2.10;;;2.00;;
19525;SDS011;9907;42.676;26.348;2024-02-14T11:04:48;1.33;;;1.03;;
19525;SDS011;9907;42.676;26.348;2024-02-14T11:07:18;1.17;;;1.00;;
19525;SDS011;9907;42.676;26.348;2024-02-14T11:09:47;0.90;;;0.90;;
19525;SDS011;9907;42.676;26.348;2024-02-14T11:12:13;1.23;;;1.23;;
19525;SDS011;9907;42.676;26.348;2024-02-14T11:14:41;1.20;;;1.13;;
19525;SDS011;9907;42.676;26.348;2024-02-14T11:17:13;1.20;;;1.10;;
19525;SDS011;9907;42.676;26.348;2024-02-14T11:19:39;0.80;;;0.80;;
19525;SDS011;9907;42.676;26.348;2024-02-14T11:22:12;2.10;;;1.27;;
19525;SDS011;9907;42.676;26.348;2024-02-14T11:24:41;2.00;;;1.70;;
19525;SDS011;9907;42.676;26.348;2024-02-14T11:27:11;3.03;;;2.40;;
19525;SDS011;9907;42.676;26.348;2024-02-14T11:29:38;2.90;;;2.10;;
19525;SDS011;9907;42.676;26.348;2024-02-14T11:32:08;2.07;;;1.30;;
19525;SDS011;9907;42.676;26.348;2024-02-14T11:34:34;1.70;;;1.60;;
19525;SDS011;9907;42.676;26.348;2024-02-14T11:37:00;2.90;;;2.70;;
19525;SDS011;9907;42.676;26.348;2024-02-14T11:39:26;2.43;;;2.23;;
19525;SDS011;9907;42.676;26.348;2024-02-14T11:41:51;2.77;;;2.03;;
19525;SDS011;9907;42.676;26.348;2024-02-14T11:44:18;1.60;;;1.50;;
19525;SDS011;9907;42.676;26.348;2024-02-14T11:46:49;1.80;;;1.70;;
19525;SDS011;9907;42.676;26.348;2024-02-14T11:49:16;1.60;;;1.50;;
19525;SDS011;9907;42.676;26.348;2024-02-14T11:51:42;2.77;;;2.27;;
19525;SDS011;9907;42.676;26.348;2024-02-14T11:54:07;2.27;;;2.07;;
19525;SDS011;9907;42.676;26.348;2024-02-14T11:56:35;3.50;;;2.10;;
19525;SDS011;9907;42.676;26.348;2024-02-14T11:59:02;2.93;;;2.70;;
19525;SDS011;9907;42.676;26.348;2024-02-14T12:01:38;3.83;;;3.37;;
19525;SDS011;9907;42.676;26.348;2024-02-14T12:04:05;4.37;;;3.70;;
19525;SDS011;9907;42.676;26.348;2024-02-14T12:06:34;2.23;;;1.83;;
19525;SDS011;9907;42.676;26.348;2024-02-14T12:09:03;2.03;;;1.87;;
19525;SDS011;9907;42.676;26.348;2024-02-14T12:11:33;1.83;;;1.73;;
19525;SDS011;9907;42.676;26.348;2024-02-14T12:14:06;3.93;;;3.43;;
19525;SDS011;9907;42.676;26.348;2024-02-14T12:16:36;2.60;;;2.40;;
19525;SDS011;9907;42.676;26.348;2024-02-14T12:21:50;3.10;;;2.40;;
19525;SDS011;9907;42.676;26.348;2024-02-14T12:24:16;1.73;;;1.60;;
19525;SDS011;9907;42.676;26.348;2024-02-14T12:26:42;1.50;;;1.40;;
19525;SDS011;9907;42.676;26.348;2024-02-14T12:29:08;2.73;;;1.70;;
19525;SDS011;9907;42.676;26.348;2024-02-14T12:31:36;1.10;;;1.10;;
19525;SDS011;9907;42.676;26.348;2024-02-14T12:34:02;1.50;;;1.40;;
19525;SDS011;9907;42.676;26.348;2024-02-14T12:36:30;1.20;;;1.10;;
19525;SDS011;9907;42.676;26.348;2024-02-14T12:38:58;1.50;;;1.33;;
19525;SDS011;9907;42.676;26.348;2024-02-14T12:41:23;3.50;;;1.93;;
19525;SDS011;9907;42.676;26.348;2024-02-14T12:43:51;1.03;;;1.03;;
19525;SDS011;9907;42.676;26.348;2024-02-14T12:46:17;3.77;;;3.37;;
19525;SDS011;9907;42.676;26.348;2024-02-14T12:48:43;1.50;;;1.40;;
19525;SDS011;9907;42.676;26.348;2024-02-14T12:51:09;2.23;;;2.00;;
19525;SDS011;9907;42.676;26.348;2024-02-14T12:53:35;2.43;;;2.23;;
19525;SDS011;9907;42.676;26.348;2024-02-14T12:56:00;2.23;;;1.80;;
19525;SDS011;9907;42.676;26.348;2024-02-14T12:58:26;2.80;;;2.30;;
19525;SDS011;9907;42.676;26.348;2024-02-14T13:00:52;2.47;;;2.27;;
19525;SDS011;9907;42.676;26.348;2024-02-14T13:03:18;2.13;;;2.00;;
19525;SDS011;9907;42.676;26.348;2024-02-14T13:05:44;1.70;;;1.60;;
19525;SDS011;9907;42.676;26.348;2024-02-14T13:08:10;3.70;;;2.47;;
19525;SDS011;9907;42.676;26.348;2024-02-14T13:10:38;3.23;;;2.20;;
19525;SDS011;9907;42.676;26.348;2024-02-14T13:13:05;2.70;;;1.23;;
19525;SDS011;9907;42.676;26.348;2024-02-14T13:15:30;0.90;;;0.90;;
19525;SDS011;9907;42.676;26.348;2024-02-14T13:17:56;1.20;;;1.10;;
19525;SDS011;9907;42.676;26.348;2024-02-14T13:20:24;1.33;;;1.23;;
19525;SDS011;9907;42.676;26.348;2024-02-14T13:22:50;0.80;;;0.80;;
19525;SDS011;9907;42.676;26.348;2024-02-14T13:25:15;1.20;;;1.10;;
19525;SDS011;9907;42.676;26.348;2024-02-14T13:27:41;1.50;;;1.40;;
19525;SDS011;9907;42.676;26.348;2024-02-14T13:30:09;2.27;;;1.67;;
19525;SDS011;9907;42.676;26.348;2024-02-14T13:32:38;0.90;;;0.90;;
19525;SDS011;9907;42.676;26.348;2024-02-14T13:35:03;1.10;;;1.00;;
19525;SDS011;9907;42.676;26.348;2024-02-14T13:37:31;0.80;;;0.80;;
19525;SDS011;9907;42.676;26.348;2024-02-14T13:39:57;1.83;;;0.77;;
19525;SDS011;9907;42.676;26.348;2024-02-14T13:42:22;5.70;;;3.37;;
19525;SDS011;9907;42.676;26.348;2024-02-14T13:44:48;1.50;;;1.40;;
19525;SDS011;9907;42.676;26.348;2024-02-14T13:47:14;2.63;;;1.60;;
19525;SDS011;9907;42.676;26.348;2024-02-14T13:49:43;1.30;;;0.90;;
19525;SDS011;9907;42.676;26.348;2024-02-14T13:52:09;0.87;;;0.87;;
19525;SDS011;9907;42.676;26.348;2024-02-14T13:54:34;0.87;;;0.87;;
19525;SDS011;9907;42.676;26.348;2024-02-14T13:57:00;1.13;;;0.60;;
19525;SDS011;9907;42.676;26.348;2024-02-14T13:59:25;1.63;;;1.50;;
19525;SDS011;9907;42.676;26.348;2024-02-14T14:01:51;0.60;;;0.60;;
19525;SDS011;9907;42.676;26.348;2024-02-14T14:04:16;1.70;;;0.90;;
19525;SDS011;9907;42.676;26.348;2024-02-14T14:06:42;1.30;;;1.20;;
19525;SDS011;9907;42.676;26.348;2024-02-14T14:09:07;4.70;;;1.30;;
19525;SDS011;9907;42.676;26.348;2024-02-14T14:11:33;3.73;;;1.10;;
19525;SDS011;9907;42.676;26.348;2024-02-14T14:14:01;1.43;;;1.33;;
19525;SDS011;9907;42.676;26.348;2024-02-14T14:16:26;1.60;;;1.50;;
19525;SDS011;9907;42.676;26.348;2024-02-14T14:18:51;10.37;;;3.93;;
19525;SDS011;9907;42.676;26.348;2024-02-14T14:21:17;4.53;;;2.50;;
19525;SDS011;9907;42.676;26.348;2024-02-14T14:23:43;3.13;;;2.30;;
19525;SDS011;9907;42.676;26.348;2024-02-14T14:26:09;6.03;;;3.97;;
19525;SDS011;9907;42.676;26.348;2024-02-14T14:28:35;4.73;;;2.40;;
19525;SDS011;9907;42.676;26.348;2024-02-14T14:31:02;1.70;;;1.60;;
19525;SDS011;9907;42.676;26.348;2024-02-14T14:33:28;2.00;;;1.70;;
19525;SDS011;9907;42.676;26.348;2024-02-14T14:35:53;1.70;;;1.60;;
19525;SDS011;9907;42.676;26.348;2024-02-14T14:38:20;4.23;;;2.83;;
19525;SDS011;9907;42.676;26.348;2024-02-14T14:40:46;8.50;;;5.27;;
19525;SDS011;9907;42.676;26.348;2024-02-14T14:43:12;3.37;;;2.60;;
19525;SDS011;9907;42.676;26.348;2024-02-14T14:45:37;8.83;;;4.37;;
19525;SDS011;9907;42.676;26.348;2024-02-14T14:48:06;16.23;;;7.33;;
19525;SDS011;9907;42.676;26.348;2024-02-14T14:50:32;18.13;;;11.07;;